D/T METAR WX W/DIR W/SPE G/SPE TEMP DEWP
7/12/19 23:50 EGJB 072350Z 20021KT 9999 OVC014 10/08 Q1010 SSW (200°) 24.2mph 10°C 8°C
7/12/19 22:50 EGJB 072250Z 21020KT 9999 BKN015 10/08 Q1012 SSW (210°) 23.0mph 10°C 8°C
7/12/19 21:50 EGJB 072150Z 22019KT 9999 BKN017 11/08 Q1013 SW (220°) 21.9mph 11°C 8°C
7/12/19 20:50 EGJB 072050Z 22018KT 9999 FEW012 BKN016 11/08 Q1014 SW (220°) 20.7mph 11°C 8°C
7/12/19 20:20 EGJB 072020Z 22018KT 9999 FEW012 BKN018 11/08 Q1014 SW (220°) 20.7mph 11°C 8°C
7/12/19 19:50 EGJB 071950Z 21015KT 9999 FEW012 BKN022 11/09 Q1014 SSW (210°) 17.3mph 11°C 9°C
7/12/19 19:20 EGJB 071920Z 23015KT 9999 FEW014 BKN025 11/09 Q1015 SW (230°) 17.3mph 11°C 9°C
7/12/19 18:50 EGJB 071850Z 22013KT 9999 FEW014 BKN025 11/08 Q1015 SW (220°) 15.0mph 11°C 8°C
7/12/19 18:20 EGJB 071820Z 24015KT 9999 SCT012 BKN025 11/09 Q1015 WSW (240°) 17.3mph 11°C 9°C
7/12/19 17:50 EGJB 071750Z 23014KT 9999 SCT015 BKN028 11/08 Q1016 SW (230°) 16.1mph 11°C 8°C
7/12/19 17:20 EGJB 071720Z 24014KT 9999 SCT016 BKN028 11/09 Q1016 WSW (240°) 16.1mph 11°C 9°C
7/12/19 16:50 EGJB 071650Z 23013KT 9999 FEW012 BKN026 11/08 Q1016 SW (230°) 15.0mph 11°C 8°C
7/12/19 16:20 EGJB 071620Z 22011KT 9999 FEW012 BKN026 11/08 Q1016 SW (220°) 12.7mph 11°C 8°C
7/12/19 15:50 EGJB 071550Z 22011KT 9999 FEW012 SCT026 11/09 Q1016 SW (220°) 12.7mph 11°C 9°C
7/12/19 15:20 EGJB 071520Z 23012KT 9999 FEW012 BKN026 11/09 Q1016 SW (230°) 13.8mph 11°C 9°C
7/12/19 14:50 EGJB 071450Z 24012KT 9999 FEW012 BKN026 11/08 Q1016 WSW (240°) 13.8mph 11°C 8°C
7/12/19 14:20 EGJB 071420Z 24012KT 9999 FEW012 BKN028 11/09 Q1016 WSW (240°) 13.8mph 11°C 9°C
7/12/19 13:50 EGJB 071350Z 24012KT 9999 SCT015 BKN028 11/09 Q1016 WSW (240°) 13.8mph 11°C 9°C
7/12/19 13:20 EGJB 071320Z 24013KT 9999 SCT015 BKN028 11/08 Q1016 WSW (240°) 15.0mph 11°C 8°C
7/12/19 12:50 EGJB 071250Z 24010KT 9999 FEW014 BKN030 11/07 Q1017 WSW (240°) 11.5mph 11°C 7°C
7/12/19 12:20 EGJB 071220Z 24010KT 9999 FEW014 BKN030 11/09 Q1017 WSW (240°) 11.5mph 11°C 9°C
7/12/19 11:50 EGJB 071150Z 24011KT 9999 VCSH FEW014 BKN030 11/08 Q1017 VCSH WSW (240°) 12.7mph 11°C 8°C
7/12/19 11:20 EGJB 071120Z 25011KT 9999 VCSH FEW010 BKN030 11/08 Q1017 VCSH WSW (250°) 12.7mph 11°C 8°C
7/12/19 10:50 EGJB 071050Z 27007KT 9999 VCSH FEW010 SCT028 11/09 Q1018 VCSH W (270°) 8.1mph 11°C 9°C
7/12/19 09:50 EGJB 070950Z 27006KT 9999 VCSH FEW014 SCT032 10/08 Q1017 VCSH W (270°) 6.9mph 10°C 8°C
7/12/19 09:20 EGJB 070920Z 27009KT 9999 FEW014 10/08 Q1017 W (270°) 10.4mph 10°C 8°C
7/12/19 08:50 EGJB 070850Z 27007KT 9999 VCSH FEW014 10/07 Q1017 VCSH W (270°) 8.1mph 10°C 7°C
7/12/19 08:20 EGJB 070820Z 28008KT 9999 FEW014 SCT034 10/08 Q1017 W (280°) 9.2mph 10°C 8°C
7/12/19 07:50 EGJB 070750Z 26007KT 9999 FEW014 BKN034 10/08 Q1017 W (260°) 8.1mph 10°C 8°C
7/12/19 07:20 EGJB 070720Z 27006KT 9999 VCSH FEW005 SCT020 BKN035 09/09 Q1016 VCSH W (270°) 6.9mph 9°C 9°C
7/12/19 06:50 EGJB 070650Z 28006KT 9999 -SHRA FEW010 BKN014 BKN032 10/08 Q1016 -SHRA W (280°) 6.9mph 10°C 8°C
7/12/19 06:20 EGJB 070620Z 30006KT 9999 BKN014 BKN034 10/08 Q1016 WNW (300°) 6.9mph 10°C 8°C
7/12/19 05:50 EGJB 070550Z 27008KT 9999 VCSH SCT017 BKN036 10/07 Q1016 VCSH W (270°) 9.2mph 10°C 7°C
7/12/19 04:50 EGJB 070450Z 28008KT 9999 VCSH FEW017 BKN037 10/07 Q1015 VCSH W (280°) 9.2mph 10°C 7°C
7/12/19 04:20 EGJB 070420Z 28008KT 9999 -SHRA SCT015 BKN032 10/08 Q1015 -SHRA W (280°) 9.2mph 10°C 8°C
7/12/19 03:50 EGJB 070350Z 27010KT 9999 VCSH FEW016 BKN035 10/08 Q1015 VCSH W (270°) 11.5mph 10°C 8°C
7/12/19 02:50 EGJB 070250Z 28011KT 9999 VCSH FEW016 BKN034 10/08 Q1015 VCSH W (280°) 12.7mph 10°C 8°C
7/12/19 01:50 EGJB 070150Z 27011KT 9999 FEW009 BKN042 10/08 Q1014 W (270°) 12.7mph 10°C 8°C
7/12/19 00:50 EGJB 070050Z 28012KT 9999 -SHRA FEW008 SCT014 BKN028 10/09 Q1014 -SHRA W (280°) 13.8mph 10°C 9°C
6/12/19 23:50 EGJB 062350Z 28011KT 9999 VCSH SCT013 BKN024 10/09 Q1014 VCSH W (280°) 12.7mph 10°C 9°C
6/12/19 22:50 EGJB 062250Z 29013KT 9999 FEW015 BKN042 11/08 Q1014 WNW (290°) 15.0mph 11°C 8°C
6/12/19 21:50 EGJB 062150Z 29013KT 9999 FEW016 11/08 Q1013 WNW (290°) 15.0mph 11°C 8°C
6/12/19 20:50 EGJB 062050Z 28016KT 9999 FEW014 11/08 Q1013 W (280°) 18.4mph 11°C 8°C
6/12/19 20:20 EGJB 062020Z 28015KT 9999 -SHRA FEW014 11/09 Q1012 -SHRA W (280°) 17.3mph 11°C 9°C
6/12/19 19:50 EGJB 061950Z 28016KT 9999 FEW013 11/09 Q1012 W (280°) 18.4mph 11°C 9°C
6/12/19 19:20 EGJB 061920Z 28015KT 9999 FEW012 SCT045 11/09 Q1012 W (280°) 17.3mph 11°C 9°C
6/12/19 18:50 EGJB 061850Z 27015KT 9999 FEW010 SCT045 11/10 Q1011 W (270°) 17.3mph 11°C 10°C
6/12/19 18:20 EGJB 061820Z 27016KT 9999 FEW010 11/10 Q1011 W (270°) 18.4mph 11°C 10°C